Shirahamamaru — JG4872 — position and weather

sailwx.info

Track history (hours):
 
Tides and Currents Weather Stations Pressure Air Temp Water Temp Dewpoint Dewpoint Depression Visibility Wind Speed Wind Dir Waves Ship Positions

Shirahamamaru

Last reported at 2014-Sep-22 05:31 UTC. Time now 2014-Sep-22 06:19 UTC.
Position N 35°13' E 139°44'.

Length 79 m; draft 3.2 m.

Type: Passenger vessel. MMSI: 431000239.

Date/timePositionNaut miles runAvg speedWind from/ knotsBaromVisibWave heightAir tempDewpointWater temp
2014-Sep-22 05:31N 35°13' E 139°44'2 1.6
2014-Sep-22 04:33N 35°12' E 139°46'0 0.5
2014-Sep-22 03:32N 35°12' E 139°46'1 1.5
2014-Sep-22 02:33N 35°12' E 139°47'4 2.7
2014-Sep-22 01:06N 35°13' E 139°43'4 6.9
2014-Sep-22 00:33N 35°11' E 139°47'3 2.6
2014-Sep-21 23:31N 35°13' E 139°44'2 1.8
2014-Sep-21 22:33N 35°12' E 139°46'1 1.4
2014-Sep-21 21:32N 35°13' E 139°44'1 0.1
2014-Sep-21 11:10N 35°13' E 139°43'6 9.3
2014-Sep-21 10:33N 35°10' E 139°49'4 3.5
2014-Sep-21 09:32N 35°12' E 139°45'2 2.0
2014-Sep-21 08:32N 35°11' E 139°47'3 2.8
2014-Sep-21 07:31N 35°13' E 139°44'3 3.3
2014-Sep-21 06:33N 35°11' E 139°47'3 2.9
2014-Sep-21 05:33N 35°13' E 139°45'2 1.6
2014-Sep-21 04:33N 35°12' E 139°46'1 1.1
2014-Sep-21 03:29N 35°13' E 139°45'2 2.4
2014-Sep-21 02:32N 35°11' E 139°47'3 2.8
2014-Sep-21 01:33N 35°13' E 139°45'3 2.8
2014-Sep-21 00:33N 35°11' E 139°47'3 2.7
2014-Sep-20 23:31N 35°13' E 139°44'2 1.8
2014-Sep-20 22:33N 35°12' E 139°46'2 1.5
2014-Sep-20 21:33N 35°13' E 139°45'1 0.1
2014-Sep-20 11:09N 35°13' E 139°43'6 6.2
2014-Sep-20 10:12N 35°10' E 139°49'5 6.2
2014-Sep-20 09:25N 35°13' E 139°44'3 3.6
2014-Sep-20 08:33N 35°11' E 139°47'3 2.7
2014-Sep-20 07:32N 35°13' E 139°44'3 3.1
2014-Sep-20 06:30N 35°11' E 139°48'3 3.3
2014-Sep-20 05:32N 35°13' E 139°44'2 1.8
2014-Sep-20 04:33N 35°12' E 139°46'1 0.9
2014-Sep-20 03:32N 35°12' E 139°45'2 1.9
2014-Sep-20 02:33N 35°12' E 139°47'3 2.7
2014-Sep-20 01:32N 35°13' E 139°44'3 2.8
2014-Sep-20 00:33N 35°11' E 139°47'2 2.1
2014-Sep-19 23:33N 35°13' E 139°45'1 1.2
2014-Sep-19 22:33N 35°12' E 139°46'2 1.6
2014-Sep-19 21:32N 35°13' E 139°45'1 0.1
2014-Sep-19 11:07N 35°13' E 139°43'610.1
2014-Sep-19 10:33N 35°10' E 139°49'4 3.4
2014-Sep-19 09:30N 35°12' E 139°45'2 1.9
2014-Sep-19 08:33N 35°11' E 139°47'3 2.7
2014-Sep-19 07:31N 35°13' E 139°44'3 3.2
2014-Sep-19 06:31N 35°11' E 139°47'3 2.7
2014-Sep-19 05:33N 35°13' E 139°45'1 0.9
2014-Sep-19 04:33N 35°12' E 139°46'0 0.2
2014-Sep-19 03:33N 35°12' E 139°46'1 1.4
2014-Sep-19 02:33N 35°11' E 139°47'2 2.2
2014-Sep-19 01:33N 35°13' E 139°45'2 2.2
2014-Sep-19 00:33N 35°12' E 139°47'2 2.2
2014-Sep-18 23:33N 35°13' E 139°45'1 1.3
2014-Sep-18 22:33N 35°12' E 139°46'1 1.3
2014-Sep-18 21:33N 35°13' E 139°45'1 0.1
2014-Sep-18 11:09N 35°13' E 139°43'6 9.4
2014-Sep-18 10:33N 35°10' E 139°49'3 2.9
2014-Sep-18 09:33N 35°12' E 139°46'1 1.2
2014-Sep-18 08:33N 35°11' E 139°47'2 2.4
2014-Sep-18 07:32N 35°13' E 139°44'3 2.6
2014-Sep-18 06:33N 35°11' E 139°47'2 2.1
2014-Sep-18 05:33N 35°13' E 139°45'1 1.1
2014-Sep-18 04:33N 35°12' E 139°46'0 0.2
2014-Sep-18 03:33N 35°12' E 139°46'1 1.1
2014-Sep-18 02:33N 35°12' E 139°47'3 2.7
2014-Sep-18 01:30N 35°13' E 139°44'3 2.9
2014-Sep-18 00:33N 35°11' E 139°47'2 2.1
2014-Sep-17 23:33N 35°13' E 139°45'1 1.1
2014-Sep-17 22:33N 35°12' E 139°46'1 1.3
2014-Sep-17 21:33N 35°13' E 139°45'2 0.1
2014-Sep-17 11:10N 35°13' E 139°43'6 9.3
2014-Sep-17 10:33N 35°10' E 139°49'3 3.1
2014-Sep-17 09:34N 35°12' E 139°46'1 0.9
2014-Sep-17 08:33N 35°11' E 139°47'2 2.4
2014-Sep-17 07:32N 35°13' E 139°44'3 3.2
2014-Sep-17 06:33N 35°11' E 139°47'3 2.7
2014-Sep-17 05:34N 35°13' E 139°45'1 1.2
2014-Sep-17 04:33N 35°12' E 139°46'0 0.2
2014-Sep-17 03:33N 35°12' E 139°46'1 1.2
2014-Sep-17 02:33N 35°12' E 139°47'3 2.5
2014-Sep-17 01:32N 35°13' E 139°44'3 2.8
2014-Sep-17 00:33N 35°11' E 139°47'2 2.4
2014-Sep-16 23:34N 35°13' E 139°45'1 1.0
2014-Sep-16 22:34N 35°12' E 139°46'1 1.3
2014-Sep-16 21:32N 35°13' E 139°44'1 0.1
2014-Sep-16 11:12N 35°13' E 139°43'6 8.9
2014-Sep-16 10:34N 35°10' E 139°49'3 3.0
2014-Sep-16 09:33N 35°12' E 139°46'1 1.2
2014-Sep-16 08:34N 35°11' E 139°47'2 2.1
2014-Sep-16 07:34N 35°13' E 139°45'2 2.0
2014-Sep-16 06:34N 35°11' E 139°47'2 2.1
2014-Sep-16 05:33N 35°13' E 139°45'1 1.2
2014-Sep-16 04:34N 35°12' E 139°46'0 0.2
2014-Sep-16 03:33N 35°12' E 139°46'1 1.3
2014-Sep-16 02:34N 35°11' E 139°47'2 2.3
2014-Sep-16 01:33N 35°13' E 139°45'2 2.3
2014-Sep-16 00:34N 35°12' E 139°47'2 2.4
2014-Sep-15 23:32N 35°13' E 139°44'1 1.5
2014-Sep-15 22:34N 35°12' E 139°46'1 1.1
2014-Sep-15 21:34N 35°13' E 139°45'2 0.2
2014-Sep-15 11:07N 35°13' E 139°43'610.1
2014-Sep-15 10:33N 35°10' E 139°49'3 3.1
2014-Sep-15 09:33N 35°13' E 139°46'2 1.9
2014-Sep-15 08:33N 35°11' E 139°48'3 2.9
2014-Sep-15 07:33N 35°13' E 139°45'3 3.0
2014-Sep-15 06:33N 35°11' E 139°48'3 3.1
2014-Sep-15 05:31N 35°13' E 139°44'1 1.5
2014-Sep-15 04:33N 35°12' E 139°46'0 0.2
2014-Sep-15 03:33N 35°12' E 139°46'1 1.1
2014-Sep-15 02:33N 35°11' E 139°47'2 2.1
2014-Sep-15 01:33N 35°13' E 139°45'2 2.1
2014-Sep-15 00:33N 35°12' E 139°47'2 2.4
2014-Sep-14 23:31N 35°13' E 139°44'1 1.5
2014-Sep-14 22:34N 35°12' E 139°46'1 1.2
2014-Sep-14 21:33N 35°13' E 139°45'0 0.0
2014-Sep-14 12:34N 35°13' E 139°44'2 1.6
2014-Sep-14 11:33N 35°12' E 139°46'3 2.8
2014-Sep-14 10:34N 35°10' E 139°49'3 3.3
2014-Sep-14 09:34N 35°12' E 139°45'3 2.9
2014-Sep-14 08:34N 35°11' E 139°48'4 3.7
2014-Sep-14 07:33N 35°13' E 139°45'3 3.4
2014-Sep-14 06:34N 35°11' E 139°48'3 3.3
2014-Sep-14 05:34N 35°13' E 139°45'1 1.4
2014-Sep-14 04:33N 35°12' E 139°46'0 0.3
2014-Sep-14 03:34N 35°12' E 139°46'1 1.2
2014-Sep-14 02:34N 35°12' E 139°47'3 2.8
2014-Sep-14 01:33N 35°13' E 139°44'1 0.2
2014-Sep-13 21:33N 35°13' E 139°45'2 1.5
2014-Sep-13 20:33N 35°13' E 139°43'0 0.0
2014-Sep-13 19:33N 35°13' E 139°43'0 0.0
2014-Sep-13 18:33N 35°13' E 139°43'0 0.0
2014-Sep-13 17:33N 35°13' E 139°43'0 0.0
2014-Sep-13 16:33N 35°13' E 139°43'0 0.0
2014-Sep-13 15:33N 35°13' E 139°43'0 0.0
2014-Sep-13 14:33N 35°13' E 139°43'0 0.0
2014-Sep-13 13:33N 35°13' E 139°43'0 0.0
2014-Sep-13 12:33N 35°13' E 139°43'0 0.0
2014-Sep-13 11:34N 35°13' E 139°43'6 5.6
2014-Sep-13 10:34N 35°10' E 139°49'3 3.0
2014-Sep-13 09:33N 35°12' E 139°46'1 1.3
2014-Sep-13 08:33N 35°11' E 139°47'3 2.6
2014-Sep-13 07:32N 35°13' E 139°44'3 2.7
2014-Sep-13 06:33N 35°12' E 139°47'2 2.4
2014-Sep-13 05:33N 35°13' E 139°45'2 1.8
2014-Sep-13 04:34N 35°11' E 139°46'1 0.8
2014-Sep-13 03:34N 35°12' E 139°46'1 1.5
2014-Sep-13 02:34N 35°11' E 139°47'3 2.8
2014-Sep-13 01:33N 35°13' E 139°44'3 2.6
2014-Sep-13 00:34N 35°12' E 139°47'2 2.0
2014-Sep-12 23:34N 35°13' E 139°45'1 1.1
2014-Sep-12 22:33N 35°12' E 139°46'1 1.4
2014-Sep-12 21:33N 35°13' E 139°45'1 0.1
2014-Sep-12 11:34N 35°13' E 139°43'3 2.6
2014-Sep-12 10:33N 35°12' E 139°46'2 2.2
2014-Sep-12 09:33N 35°11' E 139°48'4 4.2
2014-Sep-12 08:33N 35°13' E 139°44'5 5.2
2014-Sep-12 07:33N 35°10' E 139°49'5 5.3
2014-Sep-12 06:32N 35°13' E 139°43'3 3.4
2014-Sep-12 05:33N 35°12' E 139°47'  
Track history (hours):
 
Tides and Currents Weather Stations Pressure Air Temp Water Temp Dewpoint Dewpoint Depression Visibility Wind Speed Wind Dir Waves Ship Positions

Shirahamamaru

Last reported at 2014-Sep-22 05:31 UTC. Time now 2014-Sep-22 06:19 UTC.
Position N 35°13' E 139°44'.

Length 79 m; draft 3.2 m.

Type: Passenger vessel. MMSI: 431000239.

Date/timePositionNaut miles runAvg speedWind from/ knotsBaromVisibWave heightAir tempDewpointWater temp
2014-Sep-22 05:31N 35°13' E 139°44'2 1.6
2014-Sep-22 04:33N 35°12' E 139°46'0 0.5
2014-Sep-22 03:32N 35°12' E 139°46'1 1.5
2014-Sep-22 02:33N 35°12' E 139°47'4 2.7
2014-Sep-22 01:06N 35°13' E 139°43'4 6.9
2014-Sep-22 00:33N 35°11' E 139°47'3 2.6
2014-Sep-21 23:31N 35°13' E 139°44'2 1.8
2014-Sep-21 22:33N 35°12' E 139°46'1 1.4
2014-Sep-21 21:32N 35°13' E 139°44'1 0.1
2014-Sep-21 11:10N 35°13' E 139°43'6 9.3
2014-Sep-21 10:33N 35°10' E 139°49'4 3.5
2014-Sep-21 09:32N 35°12' E 139°45'2 2.0
2014-Sep-21 08:32N 35°11' E 139°47'3 2.8
2014-Sep-21 07:31N 35°13' E 139°44'3 3.3
2014-Sep-21 06:33N 35°11' E 139°47'3 2.9
2014-Sep-21 05:33N 35°13' E 139°45'2 1.6
2014-Sep-21 04:33N 35°12' E 139°46'1 1.1
2014-Sep-21 03:29N 35°13' E 139°45'2 2.4
2014-Sep-21 02:32N 35°11' E 139°47'3 2.8
2014-Sep-21 01:33N 35°13' E 139°45'3 2.8
2014-Sep-21 00:33N 35°11' E 139°47'3 2.7
2014-Sep-20 23:31N 35°13' E 139°44'2 1.8
2014-Sep-20 22:33N 35°12' E 139°46'2 1.5
2014-Sep-20 21:33N 35°13' E 139°45'1 0.1
2014-Sep-20 11:09N 35°13' E 139°43'6 6.2
2014-Sep-20 10:12N 35°10' E 139°49'5 6.2
2014-Sep-20 09:25N 35°13' E 139°44'3 3.6
2014-Sep-20 08:33N 35°11' E 139°47'3 2.7
2014-Sep-20 07:32N 35°13' E 139°44'3 3.1
2014-Sep-20 06:30N 35°11' E 139°48'3 3.3
2014-Sep-20 05:32N 35°13' E 139°44'2 1.8
2014-Sep-20 04:33N 35°12' E 139°46'1 0.9
2014-Sep-20 03:32N 35°12' E 139°45'2 1.9
2014-Sep-20 02:33N 35°12' E 139°47'3 2.7
2014-Sep-20 01:32N 35°13' E 139°44'3 2.8
2014-Sep-20 00:33N 35°11' E 139°47'2 2.1
2014-Sep-19 23:33N 35°13' E 139°45'1 1.2
2014-Sep-19 22:33N 35°12' E 139°46'2 1.6
2014-Sep-19 21:32N 35°13' E 139°45'1 0.1
2014-Sep-19 11:07N 35°13' E 139°43'610.1
2014-Sep-19 10:33N 35°10' E 139°49'4 3.4
2014-Sep-19 09:30N 35°12' E 139°45'2 1.9
2014-Sep-19 08:33N 35°11' E 139°47'3 2.7
2014-Sep-19 07:31N 35°13' E 139°44'3 3.2
2014-Sep-19 06:31N 35°11' E 139°47'3 2.7
2014-Sep-19 05:33N 35°13' E 139°45'1 0.9
2014-Sep-19 04:33N 35°12' E 139°46'0 0.2
2014-Sep-19 03:33N 35°12' E 139°46'1 1.4
2014-Sep-19 02:33N 35°11' E 139°47'2 2.2
2014-Sep-19 01:33N 35°13' E 139°45'2 2.2
2014-Sep-19 00:33N 35°12' E 139°47'2 2.2
2014-Sep-18 23:33N 35°13' E 139°45'1 1.3
2014-Sep-18 22:33N 35°12' E 139°46'1 1.3
2014-Sep-18 21:33N 35°13' E 139°45'1 0.1
2014-Sep-18 11:09N 35°13' E 139°43'6 9.4
2014-Sep-18 10:33N 35°10' E 139°49'3 2.9
2014-Sep-18 09:33N 35°12' E 139°46'1 1.2
2014-Sep-18 08:33N 35°11' E 139°47'2 2.4
2014-Sep-18 07:32N 35°13' E 139°44'3 2.6
2014-Sep-18 06:33N 35°11' E 139°47'2 2.1
2014-Sep-18 05:33N 35°13' E 139°45'1 1.1
2014-Sep-18 04:33N 35°12' E 139°46'0 0.2
2014-Sep-18 03:33N 35°12' E 139°46'1 1.1
2014-Sep-18 02:33N 35°12' E 139°47'3 2.7
2014-Sep-18 01:30N 35°13' E 139°44'3 2.9
2014-Sep-18 00:33N 35°11' E 139°47'2 2.1
2014-Sep-17 23:33N 35°13' E 139°45'1 1.1
2014-Sep-17 22:33N 35°12' E 139°46'1 1.3
2014-Sep-17 21:33N 35°13' E 139°45'2 0.1
2014-Sep-17 11:10N 35°13' E 139°43'6 9.3
2014-Sep-17 10:33N 35°10' E 139°49'3 3.1
2014-Sep-17 09:34N 35°12' E 139°46'1 0.9
2014-Sep-17 08:33N 35°11' E 139°47'2 2.4
2014-Sep-17 07:32N 35°13' E 139°44'3 3.2
2014-Sep-17 06:33N 35°11' E 139°47'3 2.7
2014-Sep-17 05:34N 35°13' E 139°45'1 1.2
2014-Sep-17 04:33N 35°12' E 139°46'0 0.2
2014-Sep-17 03:33N 35°12' E 139°46'1 1.2
2014-Sep-17 02:33N 35°12' E 139°47'3 2.5
2014-Sep-17 01:32N 35°13' E 139°44'3 2.8
2014-Sep-17 00:33N 35°11' E 139°47'2 2.4
2014-Sep-16 23:34N 35°13' E 139°45'1 1.0
2014-Sep-16 22:34N 35°12' E 139°46'1 1.3
2014-Sep-16 21:32N 35°13' E 139°44'1 0.1
2014-Sep-16 11:12N 35°13' E 139°43'6 8.9
2014-Sep-16 10:34N 35°10' E 139°49'3 3.0
2014-Sep-16 09:33N 35°12' E 139°46'1 1.2
2014-Sep-16 08:34N 35°11' E 139°47'2 2.1
2014-Sep-16 07:34N 35°13' E 139°45'2 2.0
2014-Sep-16 06:34N 35°11' E 139°47'2 2.1
2014-Sep-16 05:33N 35°13' E 139°45'1 1.2
2014-Sep-16 04:34N 35°12' E 139°46'0 0.2
2014-Sep-16 03:33N 35°12' E 139°46'1 1.3
2014-Sep-16 02:34N 35°11' E 139°47'2 2.3
2014-Sep-16 01:33N 35°13' E 139°45'2 2.3
2014-Sep-16 00:34N 35°12' E 139°47'2 2.4
2014-Sep-15 23:32N 35°13' E 139°44'1 1.5
2014-Sep-15 22:34N 35°12' E 139°46'1 1.1
2014-Sep-15 21:34N 35°13' E 139°45'2 0.2
2014-Sep-15 11:07N 35°13' E 139°43'610.1
2014-Sep-15 10:33N 35°10' E 139°49'3 3.1
2014-Sep-15 09:33N 35°13' E 139°46'2 1.9
2014-Sep-15 08:33N 35°11' E 139°48'3 2.9
2014-Sep-15 07:33N 35°13' E 139°45'3 3.0
2014-Sep-15 06:33N 35°11' E 139°48'3 3.1
2014-Sep-15 05:31N 35°13' E 139°44'1 1.5
2014-Sep-15 04:33N 35°12' E 139°46'0 0.2
2014-Sep-15 03:33N 35°12' E 139°46'1 1.1
2014-Sep-15 02:33N 35°11' E 139°47'2 2.1
2014-Sep-15 01:33N 35°13' E 139°45'2 2.1
2014-Sep-15 00:33N 35°12' E 139°47'2 2.4
2014-Sep-14 23:31N 35°13' E 139°44'1 1.5
2014-Sep-14 22:34N 35°12' E 139°46'1 1.2
2014-Sep-14 21:33N 35°13' E 139°45'0 0.0
2014-Sep-14 12:34N 35°13' E 139°44'2 1.6
2014-Sep-14 11:33N 35°12' E 139°46'3 2.8
2014-Sep-14 10:34N 35°10' E 139°49'3 3.3
2014-Sep-14 09:34N 35°12' E 139°45'3 2.9
2014-Sep-14 08:34N 35°11' E 139°48'4 3.7
2014-Sep-14 07:33N 35°13' E 139°45'3 3.4
2014-Sep-14 06:34N 35°11' E 139°48'3 3.3
2014-Sep-14 05:34N 35°13' E 139°45'1 1.4
2014-Sep-14 04:33N 35°12' E 139°46'0 0.3
2014-Sep-14 03:34N 35°12' E 139°46'1 1.2
2014-Sep-14 02:34N 35°12' E 139°47'3 2.8
2014-Sep-14 01:33N 35°13' E 139°44'1 0.2
2014-Sep-13 21:33N 35°13' E 139°45'2 1.5
2014-Sep-13 20:33N 35°13' E 139°43'0 0.0
2014-Sep-13 19:33N 35°13' E 139°43'0 0.0
2014-Sep-13 18:33N 35°13' E 139°43'0 0.0
2014-Sep-13 17:33N 35°13' E 139°43'0 0.0
2014-Sep-13 16:33N 35°13' E 139°43'0 0.0
2014-Sep-13 15:33N 35°13' E 139°43'0 0.0
2014-Sep-13 14:33N 35°13' E 139°43'0 0.0
2014-Sep-13 13:33N 35°13' E 139°43'0 0.0
2014-Sep-13 12:33N 35°13' E 139°43'0 0.0
2014-Sep-13 11:34N 35°13' E 139°43'6 5.6
2014-Sep-13 10:34N 35°10' E 139°49'3 3.0
2014-Sep-13 09:33N 35°12' E 139°46'1 1.3
2014-Sep-13 08:33N 35°11' E 139°47'3 2.6
2014-Sep-13 07:32N 35°13' E 139°44'3 2.7
2014-Sep-13 06:33N 35°12' E 139°47'2 2.4
2014-Sep-13 05:33N 35°13' E 139°45'2 1.8
2014-Sep-13 04:34N 35°11' E 139°46'1 0.8
2014-Sep-13 03:34N 35°12' E 139°46'1 1.5
2014-Sep-13 02:34N 35°11' E 139°47'3 2.8
2014-Sep-13 01:33N 35°13' E 139°44'3 2.6
2014-Sep-13 00:34N 35°12' E 139°47'2 2.0
2014-Sep-12 23:34N 35°13' E 139°45'1 1.1
2014-Sep-12 22:33N 35°12' E 139°46'1 1.4
2014-Sep-12 21:33N 35°13' E 139°45'1 0.1
2014-Sep-12 11:34N 35°13' E 139°43'3 2.6
2014-Sep-12 10:33N 35°12' E 139°46'2 2.2
2014-Sep-12 09:33N 35°11' E 139°48'4 4.2
2014-Sep-12 08:33N 35°13' E 139°44'5 5.2
2014-Sep-12 07:33N 35°10' E 139°49'5 5.3
2014-Sep-12 06:32N 35°13' E 139°43'3 3.4
2014-Sep-12 05:33N 35°12' E 139°47'  

Dump ship's entire track history